Kezdőlap
METAR-TAF:

METAR-TAF

Repülőterek :

Antsiranana, Madagaszkár

földrajzi szélesség: 12-21S, földrajzi hosszúság: 049-18E, magasság: 114 m

Jelenlegi meteorológiai megfigyelések

A jelentés 37 perccel ezelõtt készült, 14:00 UTC
Délkeleti szél 12 kt
Hőmérséklet 29°C
Páratartalom 66%
Légköri nyomás 1011 hPa
Látótávolság 10 km, vagy több
Kevés felhő 2000 lábon

METAR: FMNA 161400Z 14012KT 9999 FEW020 29/22 Q1011

Idő: 17:37 (14:37 UTC)


TAF: hiányzik

Meteorológiai megfigyelések és előrejelzések több, mint 4000 repülőtéren (METAR és TAF jelentéseket).

A térképen piros és sárga pontok jelzik az elérhető meteorológiai állomásokat.

Mozgassa az egeret a pont fölött, hogy megjelenjen az állomás neve.

Azután kattintson az időjárási megfigyelések és előrejelzések megtekintéséhez.

A térkép megváltoztatása: kattintson a fekete keresztel jelölt zöld gombra ráközelítéshez, a vonallal jelölt zöld gombra távolításhoz, vagy a zöld nyilakra a szomszédos térképek eléréséhez.


METAR-TAF: